Time;durP1;ratioP1;P1;durP2;ratioP2;P2;SDS_P1;SDS_P2;PMS_P1;PMS_P2;Temp;Humidity;BMP_temperature;BMP_pressure;BME280_temperature;BME280_humidity;BME280_pressure;Samples;Min_cycle;Max_cycle;Signal;HPM_P1;HPM_P2
2024/01/03 00:00:05;;;;;;;14.32;3.00;;;;;;;10.43;86.92;98683.06;5113744;27;20019;-79
2024/01/03 00:02:31;;;;;;;12.18;3.10;;;;;;;10.42;87.31;98681.41;5122452;27;20110;-79
2024/01/03 00:05:00;;;;;;;12.35;3.00;;;;;;;10.40;87.92;98701.75;5133142;27;20027;-79
2024/01/03 00:07:25;;;;;;;12.38;3.00;;;;;;;10.42;86.44;98686.66;5098573;27;20027;-78
2024/01/03 00:09:55;;;;;;;12.45;2.85;;;;;;;10.45;87.04;98683.72;5110950;27;20096;-79
2024/01/03 00:12:23;;;;;;;10.55;2.67;;;;;;;10.42;87.04;98699.81;5113885;27;20049;-79
2024/01/03 00:14:48;;;;;;;13.65;2.78;;;;;;;10.39;87.20;98708.00;5116602;27;20055;-79
2024/01/03 00:17:14;;;;;;;12.10;3.25;;;;;;;10.35;90.04;98704.06;5122233;27;20074;-79
2024/01/03 00:19:39;;;;;;;12.93;3.17;;;;;;;10.35;87.91;98722.47;5122531;27;20031;-78
2024/01/03 00:22:10;;;;;;;14.35;3.50;;;;;;;10.28;90.31;98713.59;5127970;27;20026;-78
2024/01/03 00:24:46;;;;;;;16.13;3.75;;;;;;;10.26;91.11;98733.97;5097215;28;20051;-78
2024/01/03 00:27:12;;;;;;;14.35;3.72;;;;;;;10.25;89.78;98734.94;5123277;27;20054;-79
2024/01/03 00:29:46;;;;;;;15.27;4.03;;;;;;;10.22;90.47;98745.78;5121715;27;20058;-79
2024/01/03 00:32:13;;;;;;;14.52;3.67;;;;;;;10.21;91.16;98749.41;5131246;27;20119;-79
2024/01/03 00:34:40;;;;;;;16.15;3.83;;;;;;;10.17;93.67;98763.81;5101778;27;20030;-79
2024/01/03 00:37:26;;;;;;;15.45;3.92;;;;;;;10.20;94.72;98747.72;5110769;27;20035;-79
2024/01/03 00:39:55;;;;;;;19.70;4.55;;;;;;;10.16;95.71;98759.56;5123833;27;20059;-79
2024/01/03 00:42:20;;;;;;;21.00;5.13;;;;;;;10.13;96.80;98762.50;5110510;27;20030;-79
2024/01/03 00:44:46;;;;;;;23.20;4.95;;;;;;;10.13;97.14;98768.59;5130381;27;20026;-79
2024/01/03 00:47:11;;;;;;;22.70;4.55;;;;;;;10.13;97.59;98758.06;5131264;27;20026;-79
2024/01/03 00:49:37;;;;;;;22.20;5.13;;;;;;;10.14;98.52;98769.41;5130953;27;20045;-79
2024/01/03 00:52:04;;;;;;;23.23;5.10;;;;;;;10.12;99.63;98771.38;5111875;27;20042;-80
2024/01/03 00:54:32;;;;;;;26.80;5.93;;;;;;;10.11;100.00;98769.72;5131087;27;20034;-80
2024/01/03 00:56:59;;;;;;;19.38;4.90;;;;;;;10.07;100.00;98776.28;5110987;28;20019;-79
2024/01/03 00:59:26;;;;;;;24.67;5.40;;;;;;;10.01;100.00;98775.97;5112709;27;20031;-80
2024/01/03 01:01:52;;;;;;;27.55;5.53;;;;;;;9.94;100.00;98769.66;5111323;27;20398;-79
2024/01/03 01:04:17;;;;;;;30.65;6.13;;;;;;;9.92;100.00;98776.91;5122946;27;20019;-80
2024/01/03 01:06:43;;;;;;;27.92;5.18;;;;;;;9.91;100.00;98777.88;5110437;28;20082;-80
2024/01/03 01:09:09;;;;;;;23.08;5.07;;;;;;;9.86;100.00;98785.41;5118123;27;20062;-80
2024/01/03 01:11:35;;;;;;;24.60;5.53;;;;;;;9.82;100.00;98781.47;5128820;27;20039;-79
2024/01/03 01:14:00;;;;;;;21.17;5.55;;;;;;;9.82;100.00;98778.84;5131473;27;20019;-79
2024/01/03 01:16:26;;;;;;;18.10;4.32;;;;;;;9.82;100.00;98780.66;5122545;27;20444;-79
2024/01/03 01:18:51;;;;;;;22.52;5.53;;;;;;;9.83;100.00;98785.75;5097978;27;20102;-79
2024/01/03 01:21:16;;;;;;;23.80;5.47;;;;;;;9.85;100.00;98785.56;5129341;27;20093;-79
2024/01/03 01:23:42;;;;;;;28.00;6.15;;;;;;;9.86;100.00;98793.28;5125659;27;20376;-80
2024/01/03 01:26:10;;;;;;;23.95;5.32;;;;;;;9.86;100.00;98798.56;5122478;27;20022;-79
2024/01/03 01:28:36;;;;;;;24.50;5.65;;;;;;;9.83;100.00;98798.03;5126404;27;20119;-80
2024/01/03 01:31:02;;;;;;;24.95;5.60;;;;;;;9.81;100.00;98789.50;5110921;27;20057;-80
2024/01/03 01:33:27;;;;;;;26.95;5.45;;;;;;;9.80;100.00;98796.56;5103653;27;20023;-80
2024/01/03 01:35:53;;;;;;;21.10;5.72;;;;;;;9.79;100.00;98792.28;5129515;27;20479;-80
2024/01/03 01:38:20;;;;;;;23.85;5.60;;;;;;;9.78;100.00;98798.53;5110790;27;20058;-80
2024/01/03 01:40:48;;;;;;;24.48;5.30;;;;;;;9.80;100.00;98790.50;5127836;27;20080;-79
2024/01/03 01:43:14;;;;;;;22.50;5.50;;;;;;;9.81;100.00;98798.22;5131225;27;20056;-80
2024/01/03 01:45:39;;;;;;;20.08;4.68;;;;;;;9.83;100.00;98798.88;5130972;27;20027;-80
2024/01/03 01:48:06;;;;;;;30.08;6.40;;;;;;;9.85;100.00;98804.78;5111953;27;20034;-80
2024/01/03 01:50:31;;;;;;;27.58;5.55;;;;;;;9.90;100.00;98805.13;5112652;27;20027;-79
2024/01/03 01:52:58;;;;;;;22.00;5.20;;;;;;;9.94;100.00;98797.75;5112957;27;20368;-79
2024/01/03 01:55:24;;;;;;;25.05;5.47;;;;;;;10.00;100.00;98807.63;5112154;27;20061;-80
2024/01/03 01:57:51;;;;;;;29.00;5.65;;;;;;;10.04;100.00;98828.19;5111846;27;20019;-80
2024/01/03 02:00:17;;;;;;;22.40;4.70;;;;;;;10.07;100.00;98821.78;5107850;27;20352;-79
2024/01/03 02:02:45;;;;;;;25.60;4.88;;;;;;;10.10;100.00;98815.38;5129441;27;20030;-79
2024/01/03 02:05:13;;;;;;;22.80;4.97;;;;;;;10.11;100.00;98845.94;5111101;27;20030;-80
2024/01/03 02:07:38;;;;;;;21.85;5.22;;;;;;;10.09;100.00;98838.22;5128868;27;20098;-82
2024/01/03 02:10:04;;;;;;;25.05;6.05;;;;;;;10.03;100.00;98844.94;5128683;27;20143;-82
2024/01/03 02:12:30;;;;;;;20.20;4.80;;;;;;;10.00;100.00;98847.84;5129536;27;20496;-82
2024/01/03 02:14:55;;;;;;;21.70;5.30;;;;;;;9.99;100.00;98850.63;5128301;27;20364;-82
2024/01/03 02:17:21;;;;;;;26.65;5.78;;;;;;;9.95;100.00;98844.88;5129345;27;20023;-82
2024/01/03 02:19:47;;;;;;;24.02;5.22;;;;;;;9.93;100.00;98843.38;5118555;27;20019;-82
2024/01/03 02:22:12;;;;;;;28.60;6.50;;;;;;;9.90;100.00;98841.91;5126422;27;20027;-82
2024/01/03 02:24:37;;;;;;;27.10;6.30;;;;;;;9.87;100.00;98852.72;5103551;27;20041;-82
2024/01/03 02:27:03;;;;;;;26.88;5.45;;;;;;;9.85;100.00;98849.44;5104736;27;20119;-82
2024/01/03 02:29:28;;;;;;;28.30;5.55;;;;;;;9.80;100.00;98851.72;5109271;27;20027;-82
2024/01/03 02:31:54;;;;;;;24.52;5.65;;;;;;;9.76;100.00;98846.94;5126145;27;20042;-82
2024/01/03 02:34:19;;;;;;;24.15;5.63;;;;;;;9.71;100.00;98848.22;5112163;27;20028;-82
2024/01/03 02:36:51;;;;;;;21.38;5.57;;;;;;;9.69;100.00;98855.44;5091745;28;20399;-82
2024/01/03 02:39:16;;;;;;;28.30;6.25;;;;;;;9.68;100.00;98850.34;5114502;27;20076;-82
2024/01/03 02:41:41;;;;;;;25.67;5.30;;;;;;;9.66;100.00;98850.50;5129106;27;20024;-82
2024/01/03 02:44:07;;;;;;;21.25;5.28;;;;;;;9.63;100.00;98856.09;5128814;27;20027;-82
2024/01/03 02:46:32;;;;;;;23.25;5.28;;;;;;;9.62;100.00;98858.88;5128343;27;20031;-82
2024/01/03 02:48:58;;;;;;;24.27;5.75;;;;;;;9.60;100.00;98864.25;5129972;27;20120;-82
2024/01/03 02:51:23;;;;;;;21.25;5.15;;;;;;;9.58;100.00;98873.25;5129896;27;20114;-79
2024/01/03 02:53:49;;;;;;;22.95;5.60;;;;;;;9.57;100.00;98866.34;5112003;27;20019;-81
2024/01/03 02:56:18;;;;;;;24.13;5.75;;;;;;;9.54;100.00;98861.41;5130089;27;20026;-81
2024/01/03 02:58:43;;;;;;;25.15;5.20;;;;;;;9.54;100.00;98871.91;5111020;27;20046;-82
2024/01/03 03:01:08;;;;;;;22.42;5.07;;;;;;;9.50;100.00;98870.59;5129982;27;20054;-81
2024/01/03 03:03:34;;;;;;;27.08;5.38;;;;;;;9.50;100.00;98867.97;5128911;27;20031;-82
2024/01/03 03:06:00;;;;;;;23.20;5.43;;;;;;;9.48;100.00;98873.38;5126574;27;20015;-82
2024/01/03 03:08:25;;;;;;;21.20;5.07;;;;;;;9.47;100.00;98871.72;5128657;27;20051;-82
2024/01/03 03:10:50;;;;;;;21.98;5.22;;;;;;;9.46;100.00;98858.75;5128121;27;20126;-82
2024/01/03 03:13:19;;;;;;;22.27;5.13;;;;;;;9.47;100.00;98857.78;5128367;27;20094;-82
2024/01/03 03:15:44;;;;;;;24.80;5.15;;;;;;;9.46;100.00;98869.25;5128710;27;20050;-82
2024/01/03 03:18:10;;;;;;;22.45;5.03;;;;;;;9.46;100.00;98866.63;5128113;28;20065;-82
2024/01/03 03:20:35;;;;;;;30.17;6.68;;;;;;;9.47;100.00;98870.91;5112103;27;20031;-81
2024/01/03 03:23:01;;;;;;;28.77;6.07;;;;;;;9.45;100.00;98881.56;5107711;28;22260;-82
2024/01/03 03:25:26;;;;;;;23.83;5.38;;;;;;;9.46;100.00;98879.75;5094603;28;20027;-82
2024/01/03 03:27:51;;;;;;;22.83;5.68;;;;;;;9.45;100.00;98870.22;5093367;28;20084;-82
2024/01/03 03:30:17;;;;;;;26.73;5.75;;;;;;;9.43;100.00;98881.72;5120838;28;20118;-82
2024/01/03 03:32:44;;;;;;;28.52;6.05;;;;;;;9.38;100.00;98876.09;5088457;28;20122;-82
2024/01/03 03:35:10;;;;;;;29.83;6.30;;;;;;;9.36;100.00;98883.31;5089530;28;20081;-81
2024/01/03 03:37:39;;;;;;;29.30;6.03;;;;;;;9.33;100.00;98885.41;5111672;28;20035;-81
2024/01/03 03:40:05;;;;;;;25.50;5.53;;;;;;;9.31;100.00;98869.81;5115010;28;20105;-81
2024/01/03 03:42:30;;;;;;;26.63;5.45;;;;;;;9.29;100.00;98884.91;5108444;28;20555;-81
2024/01/03 03:44:55;;;;;;;22.20;5.50;;;;;;;9.29;100.00;98871.78;5121739;27;20035;-81
2024/01/03 03:47:21;;;;;;;23.02;5.50;;;;;;;9.29;100.00;98879.66;5107127;28;20030;-81
2024/01/03 03:49:46;;;;;;;33.25;6.25;;;;;;;9.27;100.00;98871.13;5113218;28;20111;-81
2024/01/03 03:52:11;;;;;;;28.35;5.75;;;;;;;9.25;100.00;98873.06;5109555;28;20471;-81
2024/01/03 03:54:37;;;;;;;28.42;6.43;;;;;;;9.24;100.00;98866.19;5114236;28;20390;-81
2024/01/03 03:57:02;;;;;;;29.15;5.93;;;;;;;9.21;100.00;98866.50;5091716;28;20084;-81
2024/01/03 03:59:28;;;;;;;24.70;5.70;;;;;;;9.20;100.00;98875.31;5110192;28;20020;-81
2024/01/03 04:01:54;;;;;;;25.30;5.82;;;;;;;9.20;100.00;98874.47;5113243;28;20053;-81
2024/01/03 04:04:20;;;;;;;27.83;5.40;;;;;;;9.18;100.00;98869.38;5119522;27;20102;-81
2024/01/03 04:06:45;;;;;;;25.10;5.15;;;;;;;9.20;100.00;98877.09;5117279;28;20156;-81
2024/01/03 04:09:11;;;;;;;20.95;4.70;;;;;;;9.21;100.00;98882.22;5122223;27;20043;-81
2024/01/03 04:11:43;;;;;;;20.80;4.72;;;;;;;9.20;100.00;98885.78;5091665;28;20749;-81
2024/01/03 04:14:10;;;;;;;20.33;4.07;;;;;;;9.19;100.00;98889.41;5097838;28;20023;-82
2024/01/03 04:16:36;;;;;;;19.30;3.90;;;;;;;9.20;100.00;98896.28;5126211;27;20023;-82
2024/01/03 04:19:02;;;;;;;18.42;4.47;;;;;;;9.20;100.00;98896.28;5113720;28;20031;-82
2024/01/03 04:21:30;;;;;;;22.05;4.57;;;;;;;9.21;100.00;98897.97;5108098;28;20027;-82
2024/01/03 04:23:56;;;;;;;18.33;3.97;;;;;;;9.18;100.00;98903.50;5111953;28;20120;-82
2024/01/03 04:26:25;;;;;;;18.13;4.20;;;;;;;9.16;100.00;98900.19;5126872;28;20027;-81
2024/01/03 04:28:50;;;;;;;16.63;4.15;;;;;;;9.13;100.00;98900.50;5123787;27;20057;-81
2024/01/03 04:31:16;;;;;;;21.23;4.38;;;;;;;9.11;100.00;98892.78;5096247;28;20487;-81
2024/01/03 04:33:41;;;;;;;14.85;3.63;;;;;;;9.09;100.00;98902.63;5117158;27;20034;-81
2024/01/03 04:36:07;;;;;;;17.73;3.78;;;;;;;9.10;100.00;98903.44;5100877;27;20018;-81
2024/01/03 04:38:32;;;;;;;14.18;3.40;;;;;;;9.11;100.00;98897.22;5119500;27;20531;-82
2024/01/03 04:40:58;;;;;;;16.27;3.85;;;;;;;9.09;100.00;98889.50;5126662;27;20080;-82
2024/01/03 04:43:23;;;;;;;14.77;3.53;;;;;;;9.10;100.00;98891.16;5114703;27;20131;-81
2024/01/03 04:45:48;;;;;;;16.20;3.85;;;;;;;9.10;100.00;98882.44;5113185;27;20043;-81
2024/01/03 04:48:14;;;;;;;15.70;3.42;;;;;;;9.10;100.00;98896.38;5131515;27;20382;-82
2024/01/03 04:50:39;;;;;;;12.85;3.38;;;;;;;9.15;100.00;98892.47;5130473;27;20027;-81
2024/01/03 04:53:05;;;;;;;12.35;3.03;;;;;;;9.15;100.00;98903.81;5112847;27;20482;-81
2024/01/03 04:55:30;;;;;;;11.70;2.80;;;;;;;9.16;100.00;98900.19;5110814;27;20110;-81
2024/01/03 04:57:56;;;;;;;11.82;2.95;;;;;;;9.16;100.00;98902.81;5131213;27;20045;-82
2024/01/03 05:00:22;;;;;;;12.43;2.65;;;;;;;9.16;100.00;98889.69;5112824;27;20011;-81
2024/01/03 05:02:47;;;;;;;13.10;3.22;;;;;;;9.15;100.00;98898.56;5132398;27;20019;-79
2024/01/03 05:05:13;;;;;;;10.23;2.38;;;;;;;9.15;100.00;98903.81;5131407;27;20027;-79
2024/01/03 05:07:38;;;;;;;11.65;2.60;;;;;;;9.14;100.00;98904.78;5113113;27;20023;-79
2024/01/03 05:10:08;;;;;;;11.35;2.55;;;;;;;9.13;100.00;98912.81;5113156;27;20476;-78
2024/01/03 05:12:34;;;;;;;9.77;2.25;;;;;;;9.11;100.00;98907.72;5130167;27;20356;-81
2024/01/03 05:14:59;;;;;;;12.95;2.70;;;;;;;9.07;100.00;98915.06;5131191;27;20076;-82
2024/01/03 05:17:26;;;;;;;13.38;2.45;;;;;;;9.04;100.00;98906.66;5131280;27;20027;-82
2024/01/03 05:19:51;;;;;;;7.85;2.38;;;;;;;9.00;100.00;98894.84;5126498;27;20047;-81
2024/01/03 05:22:16;;;;;;;9.48;2.10;;;;;;;8.98;100.00;98902.03;5111470;27;20209;-81
2024/01/03 05:24:42;;;;;;;8.32;2.10;;;;;;;8.96;100.00;98904.81;5115170;27;20019;-81
2024/01/03 05:27:07;;;;;;;9.75;2.03;;;;;;;8.91;100.00;98898.38;5128718;27;20046;-81
2024/01/03 05:29:33;;;;;;;9.90;2.28;;;;;;;8.88;100.00;98909.16;5128544;27;20076;-81
2024/01/03 05:31:58;;;;;;;9.35;2.40;;;;;;;8.85;100.00;98896.34;5127150;27;20462;-82
2024/01/03 05:34:24;;;;;;;12.40;2.38;;;;;;;8.81;100.00;98905.50;5128145;27;20069;-81
2024/01/03 05:36:49;;;;;;;11.90;2.58;;;;;;;8.77;100.00;98911.00;5122588;27;20112;-82
2024/01/03 05:39:16;;;;;;;13.70;2.70;;;;;;;8.75;100.00;98918.19;5117468;27;20043;-81
2024/01/03 05:41:41;;;;;;;11.63;2.60;;;;;;;8.71;100.00;98911.63;5121347;27;20360;-81
2024/01/03 05:44:06;;;;;;;11.18;2.78;;;;;;;8.68;100.00;98906.66;5109758;27;20034;-81
2024/01/03 05:46:31;;;;;;;10.48;2.08;;;;;;;8.65;100.00;98912.22;5112728;27;20084;-81
2024/01/03 05:49:00;;;;;;;10.85;2.13;;;;;;;8.62;100.00;98914.31;5114189;27;20050;-81
2024/01/03 05:51:25;;;;;;;11.15;2.25;;;;;;;8.60;100.00;98905.78;5124770;27;20027;-81
2024/01/03 05:53:51;;;;;;;9.60;2.35;;;;;;;8.56;100.00;98915.72;5110174;27;20038;-81
2024/01/03 05:56:16;;;;;;;10.15;2.03;;;;;;;8.56;100.00;98910.50;5114532;27;20102;-81
2024/01/03 05:58:42;;;;;;;11.45;2.50;;;;;;;8.52;100.00;98917.00;5129881;27;20031;-81
2024/01/03 06:01:09;;;;;;;12.30;2.60;;;;;;;8.51;100.00;98917.97;5105922;27;20117;-81
2024/01/03 06:03:34;;;;;;;9.40;2.42;;;;;;;8.48;100.00;98910.41;5121928;27;20084;-82
2024/01/03 06:06:00;;;;;;;9.43;2.58;;;;;;;8.45;100.00;98910.72;5109824;27;20032;-83
2024/01/03 06:08:25;;;;;;;11.93;2.72;;;;;;;8.42;100.00;98917.06;5118482;27;20081;-82
2024/01/03 06:10:51;;;;;;;11.65;2.70;;;;;;;8.40;100.00;98920.78;5102904;27;20032;-82
2024/01/03 06:13:17;;;;;;;13.23;2.70;;;;;;;8.37;100.00;98926.31;5124501;27;20028;-82
2024/01/03 06:15:42;;;;;;;12.52;2.58;;;;;;;8.35;100.00;98917.78;5111388;27;20076;-82
2024/01/03 06:18:08;;;;;;;9.85;2.50;;;;;;;8.34;100.00;98918.75;5095981;27;20027;-82
2024/01/03 06:20:33;;;;;;;13.35;2.70;;;;;;;8.31;100.00;98922.47;5128135;27;20109;-82
2024/01/03 06:22:58;;;;;;;12.38;2.70;;;;;;;8.31;100.00;98919.00;5126985;27;20050;-83
2024/01/03 06:25:24;;;;;;;8.23;2.58;;;;;;;8.30;100.00;98912.13;5130636;27;20023;-82
2024/01/03 06:27:53;;;;;;;12.45;2.90;;;;;;;8.26;100.00;98923.88;5093607;28;20039;-82
2024/01/03 06:30:19;;;;;;;8.38;2.05;;;;;;;8.23;100.00;98914.50;5117064;27;20540;-80
2024/01/03 06:32:45;;;;;;;8.70;2.28;;;;;;;8.21;100.00;98913.84;5108751;28;20035;-80
2024/01/03 06:35:10;;;;;;;10.55;2.25;;;;;;;8.21;100.00;98913.84;5089516;28;20020;-81
2024/01/03 06:37:35;;;;;;;9.18;2.00;;;;;;;8.18;100.00;98909.72;5098998;28;20050;-80
2024/01/03 06:40:01;;;;;;;10.65;2.55;;;;;;;8.18;100.00;98914.94;5123575;27;20364;-80
2024/01/03 06:42:26;;;;;;;9.20;2.20;;;;;;;8.18;100.00;98920.19;5095154;28;20023;-81
2024/01/03 06:44:53;;;;;;;7.47;2.08;;;;;;;8.14;100.00;98916.22;5109835;27;20020;-81
2024/01/03 06:47:19;;;;;;;8.65;1.77;;;;;;;8.12;100.00;98919.94;5105958;28;20030;-81
2024/01/03 06:49:44;;;;;;;5.90;1.95;;;;;;;8.10;100.00;98942.84;5107869;28;20012;-81
2024/01/03 06:52:09;;;;;;;4.47;1.50;;;;;;;8.06;100.00;98931.00;5108451;28;20479;-81
2024/01/03 06:54:35;;;;;;;5.35;1.40;;;;;;;8.04;100.00;98944.25;5112645;27;20560;-80
2024/01/03 06:57:01;;;;;;;5.53;1.50;;;;;;;8.02;100.00;98958.47;5124133;27;20023;-80
2024/01/03 06:59:26;;;;;;;4.07;1.25;;;;;;;7.95;100.00;98960.81;5103781;27;20106;-80
2024/01/03 07:01:51;;;;;;;4.68;1.00;;;;;;;7.92;100.00;98960.25;5113360;27;20170;-80
2024/01/03 07:04:17;;;;;;;3.60;1.00;;;;;;;7.77;100.00;98963.34;5102919;28;20523;-79
2024/01/03 07:06:42;;;;;;;4.10;1.15;;;;;;;7.74;100.00;98970.66;5109090;27;20026;-80
2024/01/03 07:09:08;;;;;;;3.92;0.90;;;;;;;7.68;100.00;98966.00;5123739;27;20172;-81
2024/01/03 07:11:33;;;;;;;2.28;0.70;;;;;;;7.64;100.00;98967.25;5110979;27;20031;-80
2024/01/03 07:13:59;;;;;;;1.75;0.60;;;;;;;7.56;100.00;98967.94;5102507;28;20034;-80
2024/01/03 07:16:25;;;;;;;2.38;0.70;;;;;;;7.54;100.00;98968.06;5105233;27;20118;-80
2024/01/03 07:18:51;;;;;;;1.67;0.80;;;;;;;7.45;100.00;98968.91;5128329;28;20110;-80
2024/01/03 07:21:16;;;;;;;2.22;0.70;;;;;;;7.45;100.00;98966.28;5121451;28;20586;-81
2024/01/03 07:23:42;;;;;;;1.10;0.60;;;;;;;7.44;100.00;98975.09;5129185;28;20023;-80
2024/01/03 07:26:07;;;;;;;2.38;0.70;;;;;;;7.41;100.00;98971.94;5110656;28;20538;-80
2024/01/03 07:28:32;;;;;;;3.05;0.70;;;;;;;7.38;100.00;98975.69;5110806;28;20432;-80
2024/01/03 07:30:58;;;;;;;1.90;0.60;;;;;;;7.37;100.00;98976.63;5128989;27;20053;-80
2024/01/03 07:33:24;;;;;;;2.30;1.00;;;;;;;7.38;100.00;98982.69;5129933;27;20034;-80
2024/01/03 07:35:49;;;;;;;3.88;1.00;;;;;;;7.40;100.00;98976.34;5110889;28;20026;-80
2024/01/03 07:38:18;;;;;;;3.65;0.90;;;;;;;7.40;100.00;98980.75;5107801;28;20475;-80
2024/01/03 07:40:43;;;;;;;5.22;1.20;;;;;;;7.42;100.00;98986.69;5091681;28;20483;-80
2024/01/03 07:43:08;;;;;;;3.08;0.95;;;;;;;7.41;100.00;98985.84;5108126;28;20031;-81
2024/01/03 07:45:35;;;;;;;3.53;1.30;;;;;;;7.43;100.00;98991.78;5088763;28;20047;-81
2024/01/03 07:48:00;;;;;;;4.50;1.25;;;;;;;7.43;100.00;98977.88;5089405;28;20122;-81
2024/01/03 07:50:25;;;;;;;3.72;1.10;;;;;;;7.44;100.00;98993.44;5089493;28;20491;-81
2024/01/03 07:52:51;;;;;;;5.57;1.60;;;;;;;7.46;100.00;98986.25;5091622;28;20027;-80
2024/01/03 07:55:16;;;;;;;4.88;1.75;;;;;;;7.47;100.00;98993.16;5115455;28;20019;-80
2024/01/03 07:57:42;;;;;;;4.55;1.70;;;;;;;7.50;100.00;99002.50;5127657;27;20390;-80
2024/01/03 08:00:08;;;;;;;9.15;2.25;;;;;;;7.53;100.00;99003.06;5103491;28;20095;-81
2024/01/03 08:02:33;;;;;;;8.77;2.25;;;;;;;7.54;100.00;99004.69;5125003;27;20030;-81
2024/01/03 08:04:58;;;;;;;7.10;2.20;;;;;;;7.55;100.00;98995.88;5109140;28;20023;-81
2024/01/03 08:07:24;;;;;;;7.28;2.30;;;;;;;7.58;100.00;99005.25;5128350;27;20031;-81
2024/01/03 08:09:50;;;;;;;9.65;2.42;;;;;;;7.58;100.00;98997.41;5131003;27;20081;-81
2024/01/03 08:12:16;;;;;;;9.52;2.03;;;;;;;7.59;100.00;99003.47;5115564;27;20526;-81
2024/01/03 08:14:41;;;;;;;9.45;2.50;;;;;;;7.61;100.00;99009.41;5100878;27;20510;-81
2024/01/03 08:17:07;;;;;;;10.18;2.20;;;;;;;7.61;100.00;99005.00;5111562;28;20544;-81
2024/01/03 08:19:32;;;;;;;12.05;2.33;;;;;;;7.62;100.00;99005.81;5112045;27;20468;-81
2024/01/03 08:21:59;;;;;;;9.80;2.17;;;;;;;7.63;100.00;99012.72;5111397;28;20031;-81
2024/01/03 08:24:27;;;;;;;14.25;2.55;;;;;;;7.65;100.00;99010.78;5112559;28;20028;-81
2024/01/03 08:26:52;;;;;;;10.20;2.80;;;;;;;7.67;100.00;99014.06;5093175;28;20131;-81
2024/01/03 08:29:18;;;;;;;14.77;3.00;;;;;;;7.68;100.00;99011.31;5111178;28;20126;-81
2024/01/03 08:31:43;;;;;;;16.20;2.55;;;;;;;7.69;100.00;99018.19;5106290;27;20027;-81
2024/01/03 08:34:08;;;;;;;10.32;2.53;;;;;;;7.72;100.00;99017.09;5115524;27;20028;-81
2024/01/03 08:36:43;;;;;;;13.82;2.85;;;;;;;7.74;100.00;99020.41;5112243;28;20479;-81
2024/01/03 08:39:09;;;;;;;13.57;2.53;;;;;;;7.77;100.00;99015.69;5122499;27;20024;-81
2024/01/03 08:41:35;;;;;;;18.83;3.40;;;;;;;7.78;100.00;99019.97;5118891;27;20391;-81
2024/01/03 08:44:05;;;;;;;16.33;3.42;;;;;;;7.80;100.00;99025.06;5112151;27;20118;-81
2024/01/03 08:46:38;;;;;;;15.93;3.45;;;;;;;7.83;100.00;99030.84;5107890;28;20026;-81
2024/01/03 08:49:03;;;;;;;18.50;3.30;;;;;;;7.86;100.00;99029.75;5122049;27;20039;-81
2024/01/03 08:51:29;;;;;;;17.63;3.95;;;;;;;7.90;100.00;99031.09;5106643;28;20015;-81
2024/01/03 08:53:54;;;;;;;16.30;3.47;;;;;;;7.94;100.00;99031.66;5093127;28;20035;-81
2024/01/03 08:56:19;;;;;;;20.48;4.13;;;;;;;8.00;100.00;99031.06;5117051;27;20049;-80
2024/01/03 08:58:46;;;;;;;20.67;4.18;;;;;;;8.04;100.00;99033.28;5112948;27;20019;-81
2024/01/03 09:01:16;;;;;;;24.33;4.22;;;;;;;8.09;100.00;99036.31;5100711;28;20027;-81
2024/01/03 09:03:42;;;;;;;18.42;4.47;;;;;;;8.15;100.00;99037.53;5107262;27;20022;-80
2024/01/03 09:06:07;;;;;;;22.30;4.53;;;;;;;8.19;100.00;99028.41;5128954;27;20431;-81
2024/01/03 09:08:33;;;;;;;25.73;5.03;;;;;;;8.25;100.00;99027.00;5123530;27;20089;-81
2024/01/03 09:10:58;;;;;;;22.77;5.07;;;;;;;8.30;100.00;99038.72;5103242;28;20107;-81
2024/01/03 09:13:24;;;;;;;26.40;5.25;;;;;;;8.36;100.00;99034.72;5117619;27;20059;-81
2024/01/03 09:15:50;;;;;;;26.40;5.40;;;;;;;8.40;100.00;99042.16;5107058;28;20467;-81
2024/01/03 09:18:16;;;;;;;26.23;4.72;;;;;;;8.44;100.00;99046.16;5125585;27;20023;-81
2024/01/03 09:20:41;;;;;;;24.85;4.93;;;;;;;8.47;100.00;99047.66;5095618;28;20019;-81
2024/01/03 09:23:06;;;;;;;23.05;4.80;;;;;;;8.53;100.00;99046.25;5107781;28;20115;-81
2024/01/03 09:25:32;;;;;;;27.60;5.43;;;;;;;8.64;100.00;99044.25;5092332;28;20038;-81
2024/01/03 09:27:58;;;;;;;27.15;5.13;;;;;;;8.75;100.00;99054.53;5122974;27;20084;-81
2024/01/03 09:30:24;;;;;;;21.48;4.80;;;;;;;8.84;100.00;99046.81;5095746;28;20594;-81
2024/01/03 09:32:50;;;;;;;22.52;4.30;;;;;;;8.89;100.00;99047.19;5110693;28;20023;-81
2024/01/03 09:35:15;;;;;;;21.42;4.53;;;;;;;8.93;100.00;99059.03;5110853;28;20031;-81
2024/01/03 09:37:41;;;;;;;20.95;4.40;;;;;;;8.95;100.00;99043.97;5111208;27;20089;-81
2024/01/03 09:40:09;;;;;;;22.42;3.80;;;;;;;8.97;100.00;99063.00;5110805;27;20375;-81
2024/01/03 09:42:35;;;;;;;19.83;4.28;;;;;;;8.95;100.00;99049.22;5131365;27;20423;-81
2024/01/03 09:45:02;;;;;;;18.77;4.20;;;;;;;8.96;100.00;99056.13;5100438;28;20088;-81
2024/01/03 09:47:27;;;;;;;21.42;4.47;;;;;;;8.99;100.00;99056.63;5130542;27;20035;-81
2024/01/03 09:49:53;;;;;;;22.77;4.93;;;;;;;9.04;100.00;99043.06;5104705;27;20033;-80
2024/01/03 09:52:19;;;;;;;19.90;4.70;;;;;;;9.08;100.00;99049.69;5122421;27;20486;-79
2024/01/03 09:54:44;;;;;;;23.85;4.93;;;;;;;9.10;100.00;99052.97;5121817;27;20408;-80
2024/01/03 09:57:11;;;;;;;24.83;5.20;;;;;;;9.12;100.00;99061.53;5091640;28;20030;-80
2024/01/03 09:59:37;;;;;;;22.15;4.78;;;;;;;9.15;100.00;99060.41;5105174;27;20549;-80
2024/01/03 10:02:02;;;;;;;21.88;5.30;;;;;;;9.17;100.00;99059.28;5105442;27;20129;-81
2024/01/03 10:04:28;;;;;;;25.05;5.55;;;;;;;9.20;100.00;99061.59;5101627;27;20118;-79
2024/01/03 10:06:58;;;;;;;22.00;5.25;;;;;;;9.23;100.00;99071.00;5127092;27;20049;-79
2024/01/03 10:09:24;;;;;;;19.80;4.43;;;;;;;9.24;100.00;99073.47;5097393;27;20067;-79
2024/01/03 10:11:51;;;;;;;24.08;4.97;;;;;;;9.24;100.00;99065.59;5112428;27;20035;-79
2024/01/03 10:14:19;;;;;;;25.30;5.28;;;;;;;9.25;100.00;99082.19;5115005;27;20308;-79
2024/01/03 10:16:44;;;;;;;26.08;5.85;;;;;;;9.24;100.00;99075.28;5110641;27;20144;-80
2024/01/03 10:19:18;;;;;;;28.65;5.90;;;;;;;9.30;100.00;99075.50;5104605;27;20109;-79
2024/01/03 10:21:48;;;;;;;27.20;6.15;;;;;;;9.34;100.00;99087.34;5118057;27;20047;-79
2024/01/03 10:24:14;;;;;;;25.65;5.28;;;;;;;9.36;100.00;99079.31;5093434;28;20027;-80
2024/01/03 10:26:39;;;;;;;25.63;5.80;;;;;;;9.40;100.00;99086.75;5113241;27;20046;-79
2024/01/03 10:29:12;;;;;;;24.88;5.47;;;;;;;9.48;100.00;99087.81;5101029;27;20023;-80
2024/01/03 10:31:38;;;;;;;31.75;6.32;;;;;;;9.52;100.00;99076.84;5114485;27;20027;-80
2024/01/03 10:34:04;;;;;;;24.95;5.82;;;;;;;9.59;100.00;99071.81;5116400;27;20023;-80
2024/01/03 10:36:32;;;;;;;24.73;5.57;;;;;;;9.69;100.00;99080.47;5109014;27;20023;-80
2024/01/03 10:39:00;;;;;;;27.88;5.78;;;;;;;9.74;100.00;99083.44;5096397;27;20023;-80
2024/01/03 10:41:25;;;;;;;23.52;5.38;;;;;;;9.74;100.00;99084.28;5120017;27;20062;-80
2024/01/03 10:43:51;;;;;;;24.15;5.35;;;;;;;9.74;100.00;99080.81;5122539;27;20519;-81
2024/01/03 10:46:18;;;;;;;24.83;5.65;;;;;;;9.73;100.00;99087.88;5122878;27;20744;-81
2024/01/03 10:48:44;;;;;;;25.00;5.85;;;;;;;9.76;100.00;99086.75;5095217;28;20020;-81
2024/01/03 10:51:13;;;;;;;22.77;5.25;;;;;;;9.77;100.00;99093.66;5096494;27;20031;-81
2024/01/03 10:53:42;;;;;;;22.73;5.47;;;;;;;9.75;100.00;99090.34;5093245;27;20173;-81
2024/01/03 10:56:09;;;;;;;23.90;5.10;;;;;;;9.73;100.00;99089.69;5107168;27;20482;-81
2024/01/03 10:58:39;;;;;;;25.42;5.55;;;;;;;9.76;100.00;99085.94;5113231;27;20363;-81
2024/01/03 11:01:32;;;;;;;25.95;5.50;;;;;;;9.82;100.00;99082.69;5100628;27;20038;-80
2024/01/03 11:04:21;;;;;;;27.38;5.35;;;;;;;9.88;100.00;99069.78;5090211;27;20798;-81
2024/01/03 11:06:49;;;;;;;25.48;6.00;;;;;;;9.89;100.00;99076.66;5121439;27;20019;-81
2024/01/03 11:09:14;;;;;;;23.42;4.88;;;;;;;9.86;100.00;99091.91;5116375;27;20047;-81
2024/01/03 11:11:40;;;;;;;22.25;5.82;;;;;;;9.81;100.00;99078.41;5109378;27;20118;-81
2024/01/03 11:14:18;;;;;;;23.70;5.75;;;;;;;9.71;100.00;99094.25;5115003;27;20064;-81
2024/01/03 11:16:46;;;;;;;25.15;5.68;;;;;;;9.54;100.00;99090.66;5098226;27;20122;-80
2024/01/03 11:19:11;;;;;;;31.42;5.70;;;;;;;9.41;100.00;99087.56;5101089;28;20027;-80
2024/01/03 11:21:45;;;;;;;26.17;5.57;;;;;;;9.30;100.00;99095.69;5096297;28;20031;-79